createdAt,value
2022-12-06T00:00:28.579Z,85
2022-12-06T00:01:31.861Z,85
2022-12-06T00:02:35.443Z,85
2022-12-06T00:03:38.421Z,85
2022-12-06T00:04:42.527Z,85
2022-12-06T00:05:47.633Z,85
2022-12-06T00:06:50.799Z,85
2022-12-06T00:07:54.747Z,85
2022-12-06T00:08:58.039Z,85
2022-12-06T00:10:02.291Z,84.9
2022-12-06T00:11:05.072Z,85
2022-12-06T00:12:07.010Z,85
2022-12-06T00:13:10.024Z,85
2022-12-06T00:14:12.851Z,84.9
2022-12-06T00:15:14.978Z,84.9
2022-12-06T00:16:18.748Z,84.9
2022-12-06T00:17:22.025Z,85
2022-12-06T00:18:25.060Z,85
2022-12-06T00:19:28.054Z,85
2022-12-06T00:20:31.891Z,85.1
2022-12-06T00:21:35.340Z,85
2022-12-06T00:22:37.485Z,85
2022-12-06T00:23:40.178Z,85
2022-12-06T00:24:43.321Z,85
2022-12-06T00:25:46.371Z,85
2022-12-06T00:26:49.431Z,85.1
2022-12-06T00:27:52.428Z,85
2022-12-06T00:28:54.931Z,85.1
2022-12-06T00:29:59.587Z,85.1
2022-12-06T00:31:03.488Z,85.1
2022-12-06T00:32:06.696Z,85.1
2022-12-06T00:33:10.081Z,85
2022-12-06T00:34:13.786Z,85
2022-12-06T00:35:16.906Z,85.1
2022-12-06T00:36:21.065Z,85.1
2022-12-06T00:37:23.760Z,85
2022-12-06T00:38:26.744Z,85
2022-12-06T00:39:29.523Z,85
2022-12-06T00:40:32.947Z,85
2022-12-06T00:41:35.666Z,85
2022-12-06T00:42:39.273Z,85.1
2022-12-06T00:43:42.810Z,85.1
2022-12-06T00:44:45.509Z,85
2022-12-06T00:45:48.287Z,85
2022-12-06T00:46:51.239Z,85
2022-12-06T00:47:53.816Z,84.9
2022-12-06T00:48:55.960Z,85
2022-12-06T00:50:01.420Z,85
2022-12-06T00:51:04.210Z,85
2022-12-06T00:52:07.984Z,85.1
2022-12-06T00:53:11.031Z,85.1
2022-12-06T00:54:14.005Z,85.1
2022-12-06T00:55:16.992Z,85.1
2022-12-06T00:56:19.836Z,85.2
2022-12-06T00:57:22.533Z,85.2
2022-12-06T00:58:25.580Z,85.2
2022-12-06T00:59:28.364Z,85.1
2022-12-06T01:00:30.857Z,85.1
2022-12-06T01:01:33.970Z,85.1
2022-12-06T01:02:37.084Z,85.1
2022-12-06T01:03:40.226Z,85.1
2022-12-06T01:04:43.793Z,85.1
2022-12-06T01:05:46.923Z,85
2022-12-06T01:06:49.972Z,85
2022-12-06T01:07:53.848Z,85
2022-12-06T01:08:57.077Z,85
2022-12-06T01:10:01.020Z,85
2022-12-06T01:11:04.899Z,85
2022-12-06T01:12:07.696Z,84.9
2022-12-06T01:13:10.906Z,85
2022-12-06T01:14:14.230Z,85
2022-12-06T01:15:17.556Z,84.9
2022-12-06T01:16:20.235Z,85
2022-12-06T01:17:23.086Z,85
2022-12-06T01:18:25.227Z,85
2022-12-06T01:19:28.666Z,85
2022-12-06T01:20:31.279Z,85
2022-12-06T01:21:34.382Z,85
2022-12-06T01:22:37.196Z,85
2022-12-06T01:23:40.710Z,85
2022-12-06T01:24:43.405Z,85
2022-12-06T01:25:46.102Z,85
2022-12-06T01:26:49.077Z,84.9
2022-12-06T01:27:51.501Z,84.9
2022-12-06T01:28:55.203Z,84.9
2022-12-06T01:30:00.001Z,85
2022-12-06T01:31:04.614Z,84.9
2022-12-06T01:32:07.406Z,85
2022-12-06T01:33:10.108Z,85.1
2022-12-06T01:34:13.233Z,85
2022-12-06T01:35:16.487Z,85.2
2022-12-06T01:36:19.186Z,85.2
2022-12-06T01:37:21.803Z,85.2
2022-12-06T01:38:24.572Z,85.3
2022-12-06T01:39:28.084Z,85.3
2022-12-06T01:40:31.060Z,85.4
2022-12-06T01:41:33.836Z,85.4
2022-12-06T01:42:36.920Z,85.5
2022-12-06T01:43:39.799Z,85.5
2022-12-06T01:44:42.520Z,85.5
2022-12-06T01:45:45.703Z,85.6
2022-12-06T01:46:49.025Z,85.6
2022-12-06T01:47:52.422Z,85.5
2022-12-06T01:48:55.848Z,85.3
2022-12-06T01:50:00.768Z,85.3
2022-12-06T01:51:03.678Z,85.4
2022-12-06T01:52:05.905Z,85.4
2022-12-06T01:53:09.037Z,85.4
2022-12-06T01:54:11.613Z,85.4
2022-12-06T01:55:15.669Z,85.4
2022-12-06T01:56:19.130Z,85.3
2022-12-06T01:57:22.462Z,85.3
2022-12-06T01:58:26.085Z,85.3
2022-12-06T01:59:29.069Z,85.3
2022-12-06T02:00:31.279Z,85.3
2022-12-06T02:01:34.922Z,85.3
2022-12-06T02:02:38.143Z,85.3
2022-12-06T02:03:41.598Z,85.3
2022-12-06T02:04:44.104Z,85.3
2022-12-06T02:05:47.433Z,85.4
2022-12-06T02:06:50.216Z,85.4
2022-12-06T02:07:53.011Z,85.3
2022-12-06T02:08:56.368Z,85.3
2022-12-06T02:10:00.579Z,85.2
2022-12-06T02:11:05.352Z,85.2
2022-12-06T02:12:08.141Z,85.3
2022-12-06T02:13:10.842Z,85.4
2022-12-06T02:14:13.818Z,85.4
2022-12-06T02:15:16.675Z,85.5
2022-12-06T02:16:20.031Z,85.3
2022-12-06T02:17:22.993Z,85.5
2022-12-06T02:18:26.051Z,85.5
2022-12-06T02:19:29.702Z,85.4
2022-12-06T02:20:32.556Z,85.4
2022-12-06T02:21:35.649Z,85.4
2022-12-06T02:22:38.522Z,85.3
2022-12-06T02:23:40.940Z,85.3
2022-12-06T02:24:44.421Z,85.3
2022-12-06T02:25:47.267Z,85.3
2022-12-06T02:26:50.765Z,85.2
2022-12-06T02:27:53.184Z,85.3
2022-12-06T02:28:56.162Z,85.3
2022-12-06T02:30:00.261Z,85.4
2022-12-06T02:31:04.276Z,85.4
2022-12-06T02:32:07.325Z,85.4
2022-12-06T02:33:10.730Z,85.4
2022-12-06T02:34:13.886Z,85.4
2022-12-06T02:35:16.591Z,85.4
2022-12-06T02:36:19.579Z,85.5
2022-12-06T02:37:22.630Z,85.6
2022-12-06T02:38:25.201Z,85.6
2022-12-06T02:39:28.354Z,85.6
2022-12-06T02:40:31.388Z,85.6
2022-12-06T02:41:34.640Z,85.6
2022-12-06T02:42:38.755Z,85.6
2022-12-06T02:43:41.821Z,85.6
2022-12-06T02:44:44.035Z,85.6
2022-12-06T02:45:47.776Z,85.6
2022-12-06T02:46:50.428Z,85.7
2022-12-06T02:47:53.757Z,85.7
2022-12-06T02:48:56.535Z,85.7
2022-12-06T02:50:00.881Z,85.8
2022-12-06T02:51:04.380Z,85.8
2022-12-06T02:52:07.473Z,85.8
2022-12-06T02:53:09.695Z,85.9
2022-12-06T02:54:12.469Z,85.9
2022-12-06T02:55:15.946Z,85.8
2022-12-06T02:56:18.991Z,85.8
2022-12-06T02:57:21.484Z,85.8
2022-12-06T02:58:25.253Z,85.8
2022-12-06T02:59:28.099Z,85.8
2022-12-06T03:00:31.098Z,85.8
2022-12-06T03:01:34.511Z,85.8
2022-12-06T03:02:37.984Z,85.8
2022-12-06T03:03:40.861Z,85.8
2022-12-06T03:04:43.915Z,85.7
2022-12-06T03:05:46.974Z,85.7
2022-12-06T03:06:49.669Z,85.6
2022-12-06T03:07:53.009Z,85.6
2022-12-06T03:08:56.608Z,85.7
2022-12-06T03:10:01.080Z,85.7
2022-12-06T03:11:04.984Z,85.7
2022-12-06T03:12:07.892Z,85.7
2022-12-06T03:13:10.875Z,85.7
2022-12-06T03:14:16.102Z,85.6
2022-12-06T03:15:18.955Z,85.6
2022-12-06T03:16:21.923Z,85.5
2022-12-06T03:17:24.845Z,85.5
2022-12-06T03:18:27.618Z,85.5
2022-12-06T03:19:29.845Z,85.4
2022-12-06T03:20:33.207Z,85.5
2022-12-06T03:21:36.566Z,85.5
2022-12-06T03:22:41.414Z,85.5
2022-12-06T03:23:44.189Z,85.5
2022-12-06T03:24:47.529Z,85.5
2022-12-06T03:25:50.382Z,85.4
2022-12-06T03:26:52.893Z,85.4
2022-12-06T03:27:55.729Z,85.4
2022-12-06T03:28:59.074Z,85.4
2022-12-06T03:30:03.829Z,85.5
2022-12-06T03:31:07.285Z,85.5
2022-12-06T03:32:10.772Z,85.5
2022-12-06T03:33:14.544Z,85.6
2022-12-06T03:34:17.395Z,85.7
2022-12-06T03:35:19.983Z,85.7
2022-12-06T03:36:23.413Z,85.7
2022-12-06T03:37:26.741Z,85.7
2022-12-06T03:38:29.521Z,85.8
2022-12-06T03:39:32.343Z,86
2022-12-06T03:40:35.483Z,86.1
2022-12-06T03:41:38.438Z,86.2
2022-12-06T03:42:41.284Z,86.2
2022-12-06T03:43:44.720Z,86.3
2022-12-06T03:44:47.861Z,86.3
2022-12-06T03:45:51.363Z,86.3
2022-12-06T03:46:55.417Z,86.2
2022-12-06T03:47:58.537Z,86.2
2022-12-06T03:49:01.024Z,86.1
2022-12-06T03:50:04.130Z,86
2022-12-06T03:51:06.911Z,86
2022-12-06T03:52:09.048Z,86.1
2022-12-06T03:53:11.552Z,86.1
2022-12-06T03:54:14.266Z,86.1
2022-12-06T03:55:17.986Z,86.1
2022-12-06T03:56:21.220Z,86.1
2022-12-06T03:57:24.026Z,86.1
2022-12-06T03:58:27.160Z,86.1
2022-12-06T03:59:30.536Z,86.1
2022-12-06T04:00:33.099Z,86
2022-12-06T04:01:37.343Z,86
2022-12-06T04:02:40.652Z,85.8
2022-12-06T04:03:43.962Z,85.7
2022-12-06T04:04:46.675Z,85.7
2022-12-06T04:05:48.536Z,85.7
2022-12-06T04:06:51.868Z,85.7
2022-12-06T04:07:54.407Z,85.7
2022-12-06T04:08:57.367Z,85.7
2022-12-06T04:10:02.963Z,85.7
2022-12-06T04:11:05.618Z,85.7
2022-12-06T04:12:08.337Z,85.8
2022-12-06T04:13:20.125Z,85.8
2022-12-06T04:14:22.324Z,85.9
2022-12-06T04:15:26.065Z,86
2022-12-06T04:16:29.423Z,86.1
2022-12-06T04:17:33.208Z,86.2
2022-12-06T04:18:36.169Z,86.2
2022-12-06T04:19:38.945Z,86.2
2022-12-06T04:20:40.808Z,86.2
2022-12-06T04:21:43.860Z,86.2
2022-12-06T04:22:46.352Z,86.1
2022-12-06T04:23:50.063Z,86.2
2022-12-06T04:24:52.756Z,86.2
2022-12-06T04:25:55.729Z,86.2
2022-12-06T04:26:59.053Z,86.2
2022-12-06T04:28:01.821Z,86.3
2022-12-06T04:29:04.651Z,86.3
2022-12-06T04:30:07.800Z,86.3
2022-12-06T04:31:10.826Z,86.3
2022-12-06T04:32:19.488Z,86.2
2022-12-06T04:33:23.549Z,86.2
2022-12-06T04:34:26.885Z,86.1
2022-12-06T04:35:29.652Z,86.1
2022-12-06T04:36:32.349Z,86.1
2022-12-06T04:37:35.689Z,86.1
2022-12-06T04:38:38.551Z,86.1
2022-12-06T04:39:40.972Z,86.1
2022-12-06T04:40:43.461Z,86.1
2022-12-06T04:41:46.439Z,86.1
2022-12-06T04:42:48.653Z,86.2
2022-12-06T04:43:51.633Z,86.2
2022-12-06T04:44:54.413Z,86.1
2022-12-06T04:45:56.828Z,86.1
2022-12-06T04:47:00.442Z,86.1
2022-12-06T04:48:03.518Z,86.1
2022-12-06T04:49:06.741Z,86.1
2022-12-06T04:50:10.487Z,86
2022-12-06T04:51:12.789Z,86.1
2022-12-06T04:52:15.973Z,85.9
2022-12-06T04:53:18.950Z,85.9
2022-12-06T04:54:22.391Z,85.9
2022-12-06T04:55:25.396Z,86
2022-12-06T04:56:28.653Z,86
2022-12-06T04:57:31.142Z,86
2022-12-06T04:58:34.331Z,85.9
2022-12-06T04:59:38.040Z,85.9
2022-12-06T05:00:41.601Z,85.8
2022-12-06T05:01:44.821Z,85.7
2022-12-06T05:02:48.003Z,85.7
2022-12-06T05:03:51.249Z,85.7
2022-12-06T05:04:55.181Z,85.7
2022-12-06T05:05:58.022Z,85.7
2022-12-06T05:07:01.093Z,85.6
2022-12-06T05:08:05.213Z,85.6
2022-12-06T05:09:08.935Z,85.7
2022-12-06T05:10:11.707Z,85.8
2022-12-06T05:11:14.408Z,85.8
2022-12-06T05:12:17.101Z,85.8
2022-12-06T05:13:20.155Z,85.7
2022-12-06T05:14:22.166Z,85.7
2022-12-06T05:15:30.501Z,85.7
2022-12-06T05:16:33.776Z,85.8
2022-12-06T05:17:36.417Z,85.8
2022-12-06T05:18:40.182Z,85.8
2022-12-06T05:19:43.160Z,85.8
2022-12-06T05:20:47.193Z,85.8
2022-12-06T05:21:50.306Z,85.8
2022-12-06T05:22:53.733Z,85.9
2022-12-06T05:23:56.863Z,86
2022-12-06T05:24:59.841Z,86
2022-12-06T05:26:03.174Z,86.1
2022-12-06T05:27:06.534Z,86.1
2022-12-06T05:28:08.755Z,86.2
2022-12-06T05:29:11.842Z,86.2
2022-12-06T05:30:14.340Z,86.2
2022-12-06T05:31:17.539Z,86.2
2022-12-06T05:32:20.214Z,86.3
2022-12-06T05:33:23.559Z,86.3
2022-12-06T05:34:27.592Z,86.4
2022-12-06T05:35:30.300Z,86.4
2022-12-06T05:36:34.404Z,86.4
2022-12-06T05:37:37.445Z,86.4
2022-12-06T05:38:40.498Z,86.4
2022-12-06T05:39:43.474Z,86.3
2022-12-06T05:40:46.176Z,86.3
2022-12-06T05:41:49.050Z,86.4
2022-12-06T05:42:51.754Z,86.4
2022-12-06T05:43:54.170Z,86.4
2022-12-06T05:44:56.923Z,86.4
2022-12-06T05:46:00.690Z,86.3
2022-12-06T05:47:04.156Z,86.3
2022-12-06T05:48:07.016Z,86.2
2022-12-06T05:49:10.692Z,86.2
2022-12-06T05:50:14.470Z,86.2
2022-12-06T05:51:17.972Z,86.3
2022-12-06T05:52:20.925Z,86.2
2022-12-06T05:53:23.859Z,86.2
2022-12-06T05:54:26.835Z,86.2
2022-12-06T05:55:29.683Z,86.2
2022-12-06T05:56:32.481Z,86.1
2022-12-06T05:57:35.609Z,86.2
2022-12-06T05:58:38.486Z,86.1
2022-12-06T05:59:41.475Z,86.1
2022-12-06T06:00:44.078Z,86.1
2022-12-06T06:01:46.910Z,86.1
2022-12-06T06:02:50.863Z,86.1
2022-12-06T06:03:54.375Z,86.1
2022-12-06T06:04:58.002Z,86.1
2022-12-06T06:06:01.132Z,86.2
2022-12-06T06:07:03.833Z,86.4
2022-12-06T06:08:07.642Z,86.3
2022-12-06T06:09:10.583Z,86.3
2022-12-06T06:10:13.632Z,86.3
2022-12-06T06:11:16.601Z,86.4
2022-12-06T06:12:19.375Z,86.5
2022-12-06T06:13:22.152Z,86.6
2022-12-06T06:14:24.703Z,86.6
2022-12-06T06:15:27.461Z,86.6
2022-12-06T06:16:30.898Z,86.6
2022-12-06T06:17:32.967Z,86.7
2022-12-06T06:18:35.948Z,86.8
2022-12-06T06:19:38.719Z,86.8
2022-12-06T06:20:41.496Z,86.8
2022-12-06T06:21:44.338Z,86.8
2022-12-06T06:22:47.319Z,86.7
2022-12-06T06:23:51.369Z,86.8
2022-12-06T06:24:54.726Z,86.8
2022-12-06T06:25:57.487Z,86.8
2022-12-06T06:27:00.257Z,86.8
2022-12-06T06:28:02.753Z,86.9
2022-12-06T06:29:05.459Z,86.9
2022-12-06T06:30:08.327Z,86.9
2022-12-06T06:31:10.811Z,86.9
2022-12-06T06:32:13.997Z,87
2022-12-06T06:33:16.785Z,87.1
2022-12-06T06:34:19.588Z,87.2
2022-12-06T06:35:22.188Z,87.2
2022-12-06T06:36:25.901Z,87.2
2022-12-06T06:37:29.290Z,87.2
2022-12-06T06:38:32.246Z,87.1
2022-12-06T06:39:36.317Z,87.1
2022-12-06T06:40:39.352Z,87
2022-12-06T06:41:43.348Z,87
2022-12-06T06:42:46.234Z,86.9
2022-12-06T06:43:49.284Z,86.8
2022-12-06T06:44:51.422Z,86.8
2022-12-06T06:45:54.945Z,86.9
2022-12-06T06:46:58.658Z,86.9
2022-12-06T06:48:01.373Z,87
2022-12-06T06:49:03.899Z,87
2022-12-06T06:50:06.863Z,87
2022-12-06T06:51:09.002Z,87.1
2022-12-06T06:52:11.807Z,87.1
2022-12-06T06:53:14.776Z,87.1
2022-12-06T06:54:17.562Z,87
2022-12-06T06:55:21.709Z,87
2022-12-06T06:56:25.038Z,87
2022-12-06T06:57:28.158Z,86.9
2022-12-06T06:58:30.654Z,87.1
2022-12-06T06:59:34.256Z,87.1
2022-12-06T07:00:37.701Z,87.1
2022-12-06T07:01:41.616Z,87.2
2022-12-06T07:02:45.197Z,87.3
2022-12-06T07:03:47.908Z,87.4
2022-12-06T07:04:51.047Z,87.4
2022-12-06T07:05:54.106Z,87.4
2022-12-06T07:06:57.429Z,87.5
2022-12-06T07:08:00.824Z,87.5
2022-12-06T07:09:04.026Z,87.6
2022-12-06T07:10:07.166Z,87.5
2022-12-06T07:11:10.716Z,87.5
2022-12-06T07:12:14.082Z,87.6
2022-12-06T07:13:17.687Z,87.4
2022-12-06T07:14:19.905Z,87.4
2022-12-06T07:15:22.595Z,87.3
2022-12-06T07:16:26.088Z,87.2
2022-12-06T07:17:29.025Z,87.2
2022-12-06T07:18:31.927Z,87.2
2022-12-06T07:19:35.430Z,87.2
2022-12-06T07:20:38.550Z,87.2
2022-12-06T07:21:41.478Z,87.2
2022-12-06T07:22:44.255Z,87.1
2022-12-06T07:23:47.410Z,87
2022-12-06T07:24:53.648Z,86.9
2022-12-06T07:25:56.963Z,86.9
2022-12-06T07:27:00.262Z,86.8
2022-12-06T07:28:03.892Z,86.9
2022-12-06T07:29:07.606Z,86.8
2022-12-06T07:30:27.144Z,86.8
2022-12-06T07:31:31.095Z,86.7
2022-12-06T07:32:34.541Z,86.6
2022-12-06T07:33:37.152Z,86.7
2022-12-06T07:34:40.854Z,86.7
2022-12-06T07:36:14.769Z,86.6
2022-12-06T07:37:17.831Z,86.6
2022-12-06T07:38:20.657Z,86.6
2022-12-06T07:39:23.717Z,86.6
2022-12-06T07:41:05.962Z,86.6
2022-12-06T07:42:09.506Z,86.5
2022-12-06T07:43:11.989Z,86.4
2022-12-06T07:44:15.062Z,86.5
2022-12-06T07:45:17.771Z,86.6
2022-12-06T07:46:20.741Z,86.7
2022-12-06T07:47:24.521Z,86.7
2022-12-06T07:48:27.949Z,86.8
2022-12-06T07:49:30.650Z,86.8
2022-12-06T07:50:34.044Z,86.8
2022-12-06T07:51:37.395Z,86.7
2022-12-06T07:52:40.380Z,86.7
2022-12-06T07:53:43.482Z,86.7
2022-12-06T07:54:46.459Z,86.7
2022-12-06T07:55:49.942Z,86.8
2022-12-06T07:56:53.119Z,86.8
2022-12-06T07:57:56.902Z,87
2022-12-06T07:59:00.042Z,87.1
2022-12-06T08:00:03.751Z,87.1
2022-12-06T08:01:07.245Z,87.1
2022-12-06T08:02:10.028Z,87.2
2022-12-06T08:03:13.108Z,87.2
2022-12-06T08:04:15.915Z,87
2022-12-06T08:05:19.293Z,87.1
2022-12-06T08:06:23.051Z,87.1
2022-12-06T08:07:26.237Z,87.1
2022-12-06T08:08:30.653Z,87.1
2022-12-06T08:09:33.286Z,87.1
2022-12-06T08:10:36.715Z,87.1
2022-12-06T08:11:39.718Z,87.1
2022-12-06T08:12:43.338Z,87
2022-12-06T08:13:46.583Z,87.1
2022-12-06T08:14:49.342Z,87.1
2022-12-06T08:15:52.260Z,87.1
2022-12-06T08:16:55.753Z,87.2
2022-12-06T08:17:59.091Z,87.2
2022-12-06T08:19:02.244Z,87.2
2022-12-06T08:20:05.764Z,87.2
2022-12-06T08:21:09.091Z,87.3
2022-12-06T08:22:11.511Z,87.2
2022-12-06T08:23:15.150Z,87.3
2022-12-06T08:24:18.591Z,87.3
2022-12-06T08:25:21.784Z,87.2
2022-12-06T08:26:24.621Z,87.3
2022-12-06T08:27:28.288Z,87.2
2022-12-06T08:28:30.731Z,87.3
2022-12-06T08:29:34.866Z,87.3
2022-12-06T08:30:38.627Z,87.3
2022-12-06T08:31:42.558Z,87.3
2022-12-06T08:32:46.232Z,87.4
2022-12-06T08:33:49.006Z,87.4
2022-12-06T08:34:53.007Z,87.4
2022-12-06T08:35:56.712Z,87.5
2022-12-06T08:37:04.891Z,87.6
2022-12-06T08:38:07.944Z,87.7
2022-12-06T08:39:10.644Z,88
2022-12-06T08:40:13.140Z,88
2022-12-06T08:41:15.674Z,88.1
2022-12-06T08:42:26.476Z,88.2
2022-12-06T08:43:30.132Z,88.2
2022-12-06T08:44:33.208Z,88.4
2022-12-06T08:45:37.369Z,88.4
2022-12-06T08:46:40.748Z,88.4
2022-12-06T08:47:43.857Z,88.5
2022-12-06T08:48:46.375Z,88.5
2022-12-06T08:49:49.773Z,88.5
2022-12-06T08:50:52.359Z,88.6
2022-12-06T08:51:55.495Z,88.6
2022-12-06T08:52:58.921Z,88.7
2022-12-06T08:54:02.157Z,88.7
2022-12-06T08:55:05.591Z,88.8
2022-12-06T08:56:08.088Z,88.9
2022-12-06T08:57:11.490Z,88.9
2022-12-06T08:58:14.616Z,89
2022-12-06T08:59:18.086Z,89
2022-12-06T09:00:21.145Z,89
2022-12-06T09:01:25.123Z,88.9
2022-12-06T09:02:28.080Z,88.8
2022-12-06T09:03:31.202Z,89.1
2022-12-06T09:04:34.656Z,89.3
2022-12-06T09:05:38.162Z,89.3
2022-12-06T09:06:40.883Z,89.2
2022-12-06T09:07:44.257Z,89.2
2022-12-06T09:08:47.346Z,89.2
2022-12-06T09:09:50.149Z,89.2
2022-12-06T09:10:52.923Z,89.2
2022-12-06T09:11:55.694Z,89
2022-12-06T09:12:58.471Z,89
2022-12-06T09:14:01.164Z,88.9
2022-12-06T09:15:04.571Z,88.9
2022-12-06T09:16:08.172Z,88.9
2022-12-06T09:17:11.607Z,88.9
2022-12-06T09:18:14.734Z,88.9
2022-12-06T09:19:17.481Z,88.9
2022-12-06T09:20:20.705Z,88.9
2022-12-06T09:21:23.484Z,88.9
2022-12-06T09:22:26.811Z,88.9
2022-12-06T09:23:29.593Z,88.9
2022-12-06T09:24:32.434Z,88.9
2022-12-06T09:25:35.566Z,89
2022-12-06T09:26:38.349Z,89
2022-12-06T09:27:41.988Z,89.1
2022-12-06T09:28:44.968Z,89.1
2022-12-06T09:29:48.315Z,89.1
2022-12-06T09:30:51.207Z,89.1
2022-12-06T09:31:54.718Z,89.1
2022-12-06T09:32:58.557Z,89.2
2022-12-06T09:34:01.603Z,89.2
2022-12-06T09:35:05.028Z,89.2
2022-12-06T09:36:18.487Z,89.2
2022-12-06T09:37:21.552Z,89.1
2022-12-06T09:38:24.051Z,89.1
2022-12-06T09:39:26.549Z,89
2022-12-06T09:40:28.967Z,89
2022-12-06T09:41:32.415Z,89.1
2022-12-06T09:42:36.046Z,89.1
2022-12-06T09:43:38.941Z,89.2
2022-12-06T09:44:41.986Z,89.2
2022-12-06T09:45:45.144Z,89.2
2022-12-06T09:46:48.924Z,89.3
2022-12-06T09:47:52.111Z,89.4
2022-12-06T09:48:56.277Z,89.5
2022-12-06T09:50:01.509Z,89.6
2022-12-06T09:51:04.946Z,89.7
2022-12-06T09:52:07.987Z,89.7
2022-12-06T09:53:10.473Z,89.9
2022-12-06T09:54:14.177Z,89.9
2022-12-06T09:55:17.600Z,89.9
2022-12-06T09:56:20.652Z,89.9
2022-12-06T09:57:24.076Z,90.1
2022-12-06T09:58:26.869Z,90.1
2022-12-06T09:59:29.568Z,90.2
2022-12-06T10:00:33.340Z,90.3
2022-12-06T10:01:36.810Z,90.3
2022-12-06T10:02:40.885Z,90.4
2022-12-06T10:03:43.788Z,90.6
2022-12-06T10:04:47.857Z,90.7
2022-12-06T10:05:53.514Z,90.6
2022-12-06T10:06:56.080Z,90.7
2022-12-06T10:07:59.509Z,90.7
2022-12-06T10:09:03.981Z,90.7
2022-12-06T10:10:07.547Z,90.7
2022-12-06T10:11:10.389Z,90.8
2022-12-06T10:12:13.710Z,90.9
2022-12-06T10:13:17.135Z,90.9
2022-12-06T10:14:19.974Z,91
2022-12-06T10:15:23.046Z,91
2022-12-06T10:16:27.004Z,91
2022-12-06T10:17:30.459Z,91
2022-12-06T10:18:33.547Z,91
2022-12-06T10:19:36.406Z,91.1
2022-12-06T10:20:40.500Z,91.2
2022-12-06T10:21:43.187Z,91.2
2022-12-06T10:22:46.237Z,91.3
2022-12-06T10:23:49.508Z,91.3
2022-12-06T10:24:52.767Z,91.4
2022-12-06T10:25:55.741Z,91.5
2022-12-06T10:26:58.715Z,91.7
2022-12-06T10:28:01.848Z,91.8
2022-12-06T10:29:04.894Z,91.8
2022-12-06T10:30:07.945Z,91.8
2022-12-06T10:31:11.568Z,91.8
2022-12-06T10:32:14.545Z,91.8
2022-12-06T10:33:17.981Z,91.8
2022-12-06T10:34:21.633Z,91.8
2022-12-06T10:35:24.564Z,91.8
2022-12-06T10:36:28.480Z,91.9
2022-12-06T10:37:31.191Z,91.8
2022-12-06T10:38:33.963Z,91.8
2022-12-06T10:39:37.315Z,91.7
2022-12-06T10:40:39.888Z,91.7
2022-12-06T10:41:42.868Z,91.6
2022-12-06T10:42:45.591Z,91.6
2022-12-06T10:43:49.022Z,91.7
2022-12-06T10:44:52.083Z,91.7
2022-12-06T10:45:55.224Z,91.7
2022-12-06T10:46:59.376Z,91.6
2022-12-06T10:48:03.432Z,91.5
2022-12-06T10:49:05.929Z,91.3
2022-12-06T10:50:08.934Z,91.2
2022-12-06T10:51:12.116Z,91.2
2022-12-06T10:52:15.915Z,91.2
2022-12-06T10:53:18.711Z,91.2
2022-12-06T10:54:22.779Z,91.1
2022-12-06T10:55:27.049Z,91
2022-12-06T10:56:29.833Z,91
2022-12-06T10:57:32.689Z,90.9
2022-12-06T10:58:36.045Z,90.9
2022-12-06T10:59:38.904Z,90.7
2022-12-06T11:00:42.167Z,90.6
2022-12-06T11:01:45.805Z,90.6
2022-12-06T11:02:48.473Z,90.5
2022-12-06T11:03:51.525Z,90.5
2022-12-06T11:04:55.224Z,90.2
2022-12-06T11:05:58.332Z,90
2022-12-06T11:07:01.714Z,90
2022-12-06T11:08:05.997Z,90
2022-12-06T11:09:09.843Z,89.9
2022-12-06T11:10:13.439Z,89.9
2022-12-06T11:11:16.546Z,89.9
2022-12-06T11:12:19.633Z,89.8
2022-12-06T11:13:22.700Z,89.8
2022-12-06T11:14:25.223Z,89.8
2022-12-06T11:15:28.001Z,89.9
2022-12-06T11:16:31.035Z,89.9
2022-12-06T11:17:34.171Z,89.8
2022-12-06T11:18:36.952Z,89.7
2022-12-06T11:19:40.295Z,89.5
2022-12-06T11:20:44.338Z,89.4
2022-12-06T11:21:47.761Z,90.1
2022-12-06T11:22:51.037Z,92.7
2022-12-06T11:23:55.099Z,93.1
2022-12-06T11:24:57.966Z,92.8
2022-12-06T11:26:00.813Z,93.4
2022-12-06T11:27:03.418Z,93.6
2022-12-06T11:28:06.475Z,93.6
2022-12-06T11:29:09.602Z,94.1
2022-12-06T11:30:21.531Z,93.6
2022-12-06T11:31:25.109Z,92.7
2022-12-06T11:32:28.730Z,91.7
2022-12-06T11:33:32.073Z,90.8
2022-12-06T11:34:35.273Z,86.9
2022-12-06T11:35:37.963Z,86.2
2022-12-06T11:36:40.655Z,85.1
2022-12-06T11:37:46.145Z,83.8
2022-12-06T11:38:49.220Z,83.5
2022-12-06T11:39:53.342Z,83.1
2022-12-06T11:40:56.113Z,83.5
2022-12-06T11:41:59.480Z,83.9
2022-12-06T11:43:03.117Z,84.2
2022-12-06T11:44:06.527Z,84.4
2022-12-06T11:45:09.423Z,84.5
2022-12-06T11:46:12.362Z,84.7
2022-12-06T11:47:15.227Z,84.8
2022-12-06T11:48:18.090Z,84.8
2022-12-06T11:49:21.179Z,85.1
2022-12-06T11:50:23.875Z,85.2
2022-12-06T11:51:27.213Z,85.4
2022-12-06T11:52:30.320Z,85.5
2022-12-06T11:53:34.341Z,85.5
2022-12-06T11:54:37.727Z,85.4
2022-12-06T11:55:41.679Z,85.6
2022-12-06T11:56:45.110Z,85.7
2022-12-06T11:57:47.684Z,85.9
2022-12-06T11:58:50.666Z,85.9
2022-12-06T11:59:53.369Z,85.9
2022-12-06T12:00:57.140Z,85.8
2022-12-06T12:02:00.900Z,85.8
2022-12-06T12:03:04.700Z,85.8
2022-12-06T12:04:08.301Z,86
2022-12-06T12:05:11.176Z,86.1
2022-12-06T12:06:14.316Z,86.2
2022-12-06T12:07:17.673Z,86.2
2022-12-06T12:08:20.902Z,86.1
2022-12-06T12:09:24.280Z,86.2
2022-12-06T12:10:27.409Z,86.3
2022-12-06T12:11:31.524Z,86.3
2022-12-06T12:12:35.044Z,86.1
2022-12-06T12:13:38.120Z,86.1
2022-12-06T12:14:49.666Z,86.1
2022-12-06T12:15:54.169Z,85.8
2022-12-06T12:16:57.941Z,85.9
2022-12-06T12:18:00.765Z,85.9
2022-12-06T12:19:04.093Z,85.5
2022-12-06T12:20:07.115Z,85.4
2022-12-06T12:21:09.821Z,85.5
2022-12-06T12:22:12.389Z,85.8
2022-12-06T12:23:15.374Z,85.8
2022-12-06T12:24:18.703Z,85.8
2022-12-06T12:25:23.682Z,85.8
2022-12-06T12:26:27.312Z,85.6
2022-12-06T12:27:31.174Z,85.7
2022-12-06T12:28:34.878Z,85.7
2022-12-06T12:29:37.959Z,85.7
2022-12-06T12:30:40.768Z,85.5
2022-12-06T12:31:44.585Z,85.2
2022-12-06T12:32:48.077Z,85
2022-12-06T12:33:51.144Z,84.9
2022-12-06T12:34:54.293Z,85
2022-12-06T12:35:57.725Z,84.6
2022-12-06T12:37:00.905Z,84.8
2022-12-06T12:38:03.682Z,85
2022-12-06T12:39:06.449Z,85.1
2022-12-06T12:40:12.011Z,85.2
2022-12-06T12:41:15.482Z,85
2022-12-06T12:42:18.470Z,85
2022-12-06T12:43:22.662Z,85.1
2022-12-06T12:44:41.530Z,85.2
2022-12-06T12:45:45.135Z,85.1
2022-12-06T12:46:48.656Z,85.1
2022-12-06T12:47:52.026Z,85.1
2022-12-06T12:48:55.155Z,85.1
2022-12-06T12:49:57.461Z,85.1
2022-12-06T12:51:01.155Z,85.1
2022-12-06T12:52:04.242Z,85.3
2022-12-06T12:53:07.349Z,85.4
2022-12-06T12:54:10.177Z,85.4
2022-12-06T12:55:13.151Z,85.4
2022-12-06T12:56:15.303Z,85.5
2022-12-06T12:57:18.385Z,85.6
2022-12-06T12:58:22.045Z,85.6
2022-12-06T12:59:25.627Z,85.7
2022-12-06T13:00:28.892Z,85.8
2022-12-06T13:01:32.485Z,85.9
2022-12-06T13:02:36.147Z,85.9
2022-12-06T13:03:54.803Z,85.9
2022-12-06T13:05:38.494Z,85.7
2022-12-06T13:06:51.499Z,85.6
2022-12-06T13:07:54.856Z,85.6
2022-12-06T13:08:58.424Z,85.5
2022-12-06T13:10:01.754Z,85.4
2022-12-06T13:11:04.806Z,85.5
2022-12-06T13:12:08.289Z,85.5
2022-12-06T13:13:11.403Z,85.5
2022-12-06T13:14:14.489Z,85.2
2022-12-06T13:15:18.339Z,85.3
2022-12-06T13:16:21.790Z,85.3
2022-12-06T13:17:25.011Z,85.3
2022-12-06T13:18:28.091Z,85.4
2022-12-06T13:19:30.886Z,85.5
2022-12-06T13:20:33.491Z,85.4
2022-12-06T13:21:36.538Z,85.4
2022-12-06T13:22:39.624Z,85.4
2022-12-06T13:23:42.408Z,85.4
2022-12-06T13:24:46.040Z,85.3
2022-12-06T13:25:49.366Z,85.2
2022-12-06T13:26:52.418Z,85.1
2022-12-06T13:27:55.190Z,85
2022-12-06T13:29:02.430Z,84.9
2022-12-06T13:30:05.861Z,85
2022-12-06T13:31:10.012Z,85
2022-12-06T13:32:12.949Z,85.1
2022-12-06T13:33:22.316Z,85.3
2022-12-06T13:34:25.752Z,85.4
2022-12-06T13:35:28.538Z,85.4
2022-12-06T13:36:32.253Z,85.4
2022-12-06T13:37:34.755Z,85.4
2022-12-06T13:38:37.349Z,85.5
2022-12-06T13:39:40.674Z,85.5
2022-12-06T13:40:43.356Z,85.5
2022-12-06T13:41:46.402Z,85.6
2022-12-06T13:42:49.770Z,85.5
2022-12-06T13:43:53.013Z,85.5
2022-12-06T13:44:56.458Z,85.7
2022-12-06T13:45:59.817Z,85.7
2022-12-06T13:47:03.932Z,85.5
2022-12-06T13:48:07.263Z,90.3
2022-12-06T13:49:10.319Z,92.8
2022-12-06T13:50:13.463Z,95.2
2022-12-06T13:51:16.236Z,92.6
2022-12-06T13:52:19.215Z,88.8
2022-12-06T13:53:22.194Z,86.1
2022-12-06T13:54:25.904Z,85.2
2022-12-06T13:55:29.223Z,85
2022-12-06T13:56:32.349Z,84.6
2022-12-06T13:57:35.858Z,84.5
2022-12-06T13:58:39.259Z,84.5
2022-12-06T13:59:42.091Z,84.6
2022-12-06T14:00:45.520Z,84.7
2022-12-06T14:01:49.363Z,84.6
2022-12-06T14:02:53.807Z,84.6
2022-12-06T14:03:57.369Z,84.6
2022-12-06T14:05:02.382Z,84.7
2022-12-06T14:06:16.885Z,84.9
2022-12-06T14:07:19.942Z,85.3
2022-12-06T14:08:23.782Z,85.3
2022-12-06T14:09:27.686Z,85.4
2022-12-06T14:10:30.847Z,85.5
2022-12-06T14:11:41.051Z,85.6
2022-12-06T14:12:43.761Z,85.6